Главная страница
METAR-TAF:

METAR-TAF

Аэропорты :

Карачи, Пакистан

Джинна

широта: 24-54N, долгота: 067-08E, высота над уровнем моря: 21 м

Текущие метеонаблюдения

Эта сводка был подготовлена 26 минут назад, в 21:25 UTC
Ветер 8 Узел от юго-западный
Температура 27°C
Влажность 74%
Давление 1006 hPa
Видимость: 5000 м
Отдельные облака на высоте 2000 фута
мгла

METAR: OPKC 252125Z 23008KT 5000 HZ SCT020 27/22 Q1006 NOSIG

Время: 02:51 (21:51 UTC)

Прогноз

Эта сводка был подготовлена 5 часа и 51 минут назад, в 16:00 UTC
Прогноз действительный с 25-го 18 UTC до 26-го 24 UTC
Ветер 12 Узел от западный
Видимость: 5000 м
мгла
С UTC
Ветер 8 Узел от западный-юго-западный с порывами до 18 Узел
Видимость: 6000 м
изменения
С 26-го 18 UTC до 26-го 20 UTC
Ветер 8 Узел от западный
Видимость: 4000 м
мгла

TAF: OPKC 251600Z 2518/2624 27012KT 5000 HZ NSC FM 260600Z 24008G18KT 6000 NSC BECMG 2618/2620 27008KT 4000 HZ NSC

Метеонаблюдения и прогнозы для более 4000 аэропортов (сводки METAR и TAF).

Имеющиеся станции представлены на карте желтыми и красными точками.

Чтобы увидеть название станции, наведите на нее мышь.

Затем щелкните, чтобы увидеть метеонаблюдения и метеопрогнозы.

Управление картой: чтобы увеличить масштаб, щелкните зеленые кнопки с черным крестиком; чтобы уменьшить масштаб, щелкните зеленую кнопку с тире; для просмотра соседних карт щелкайте зеленые стрелки.


METAR-TAF: